Terminal Aerodrome Forecast
Issued by NWS

Home | Current Version | Previous Version | Text Only | Print | Product List | Glossary On
Versions: 1 2 3 4 5 6 7 8 9 10 11 12 13 14 15 16 17
000
FTUS45 KVEF 080248 AAA
TAFHND
TAF AMD
KHND 080248Z 0803/0824 16008KT P6SM FEW070 BKN160 BKN200
     FM080400 20009KT P6SM FEW120 SCT250
     FM081800 19012G22KT P6SM SKC
     FM082100 19016G26KT P6SM SKC=

USA.gov is the U.S. government's official web portal to all federal, state and local government web resources and services.